sensor_id;sensor_type;location;lat;lon;timestamp;temperature;humidity
19493;DHT22;9887;54.366;10.958;2024-02-21T00:01:25;8.70;99.90
19493;DHT22;9887;54.366;10.958;2024-02-21T00:03:53;8.70;99.90
19493;DHT22;9887;54.366;10.958;2024-02-21T00:06:21;8.70;99.90
19493;DHT22;9887;54.366;10.958;2024-02-21T00:08:50;8.70;99.90
19493;DHT22;9887;54.366;10.958;2024-02-21T00:11:18;8.70;99.90
19493;DHT22;9887;54.366;10.958;2024-02-21T00:13:46;8.70;99.90
19493;DHT22;9887;54.366;10.958;2024-02-21T00:16:14;8.70;99.90
19493;DHT22;9887;54.366;10.958;2024-02-21T00:18:43;8.70;99.90
19493;DHT22;9887;54.366;10.958;2024-02-21T00:21:11;8.70;99.90
19493;DHT22;9887;54.366;10.958;2024-02-21T00:23:44;8.70;99.90
19493;DHT22;9887;54.366;10.958;2024-02-21T00:26:14;8.70;99.90
19493;DHT22;9887;54.366;10.958;2024-02-21T00:28:42;8.70;99.90
19493;DHT22;9887;54.366;10.958;2024-02-21T00:31:10;8.70;99.90
19493;DHT22;9887;54.366;10.958;2024-02-21T00:33:38;8.70;99.90
19493;DHT22;9887;54.366;10.958;2024-02-21T00:36:07;8.70;99.90
19493;DHT22;9887;54.366;10.958;2024-02-21T00:38:36;8.70;99.90
19493;DHT22;9887;54.366;10.958;2024-02-21T00:41:03;8.70;99.90
19493;DHT22;9887;54.366;10.958;2024-02-21T00:43:33;8.70;99.90
19493;DHT22;9887;54.366;10.958;2024-02-21T00:46:01;8.70;99.90
19493;DHT22;9887;54.366;10.958;2024-02-21T00:48:29;8.70;99.90
19493;DHT22;9887;54.366;10.958;2024-02-21T00:50:57;8.70;99.90
19493;DHT22;9887;54.366;10.958;2024-02-21T00:53:25;8.70;99.90
19493;DHT22;9887;54.366;10.958;2024-02-21T00:55:53;8.70;99.90
19493;DHT22;9887;54.366;10.958;2024-02-21T00:58:21;8.70;99.90
19493;DHT22;9887;54.366;10.958;2024-02-21T01:00:50;8.80;99.90
19493;DHT22;9887;54.366;10.958;2024-02-21T01:03:18;8.70;99.90
19493;DHT22;9887;54.366;10.958;2024-02-21T01:05:46;8.80;99.90
19493;DHT22;9887;54.366;10.958;2024-02-21T01:08:18;8.80;99.90
19493;DHT22;9887;54.366;10.958;2024-02-21T01:10:46;8.70;99.90
19493;DHT22;9887;54.366;10.958;2024-02-21T01:13:14;8.80;99.90
19493;DHT22;9887;54.366;10.958;2024-02-21T01:15:42;8.80;99.90
19493;DHT22;9887;54.366;10.958;2024-02-21T01:18:11;8.80;99.90
19493;DHT22;9887;54.366;10.958;2024-02-21T01:20:39;8.80;99.90
19493;DHT22;9887;54.366;10.958;2024-02-21T01:23:08;8.80;99.90
19493;DHT22;9887;54.366;10.958;2024-02-21T01:25:36;8.80;99.90
19493;DHT22;9887;54.366;10.958;2024-02-21T01:28:06;8.80;99.90
19493;DHT22;9887;54.366;10.958;2024-02-21T01:30:34;8.80;99.90
19493;DHT22;9887;54.366;10.958;2024-02-21T01:33:03;8.80;99.90
19493;DHT22;9887;54.366;10.958;2024-02-21T01:35:33;8.80;99.90
19493;DHT22;9887;54.366;10.958;2024-02-21T01:38:02;8.80;99.90
19493;DHT22;9887;54.366;10.958;2024-02-21T01:40:31;8.80;99.90
19493;DHT22;9887;54.366;10.958;2024-02-21T01:42:59;8.80;99.90
19493;DHT22;9887;54.366;10.958;2024-02-21T01:45:27;8.80;99.90
19493;DHT22;9887;54.366;10.958;2024-02-21T01:47:55;8.80;99.90
19493;DHT22;9887;54.366;10.958;2024-02-21T01:50:23;8.80;99.90
19493;DHT22;9887;54.366;10.958;2024-02-21T01:52:53;8.80;99.90
19493;DHT22;9887;54.366;10.958;2024-02-21T01:55:22;8.80;99.90
19493;DHT22;9887;54.366;10.958;2024-02-21T01:57:53;8.80;99.90
19493;DHT22;9887;54.366;10.958;2024-02-21T02:00:21;8.80;99.90
19493;DHT22;9887;54.366;10.958;2024-02-21T02:02:50;8.80;99.90
19493;DHT22;9887;54.366;10.958;2024-02-21T02:05:19;8.90;99.90
19493;DHT22;9887;54.366;10.958;2024-02-21T02:07:47;8.90;99.90
19493;DHT22;9887;54.366;10.958;2024-02-21T02:10:17;8.80;99.90
19493;DHT22;9887;54.366;10.958;2024-02-21T02:12:45;8.90;99.90
19493;DHT22;9887;54.366;10.958;2024-02-21T02:15:13;8.90;99.90
19493;DHT22;9887;54.366;10.958;2024-02-21T02:17:41;8.90;99.90
19493;DHT22;9887;54.366;10.958;2024-02-21T02:20:10;8.90;99.90
19493;DHT22;9887;54.366;10.958;2024-02-21T02:22:43;8.90;99.90
19493;DHT22;9887;54.366;10.958;2024-02-21T02:25:14;8.90;99.90
19493;DHT22;9887;54.366;10.958;2024-02-21T02:27:42;8.90;99.90
19493;DHT22;9887;54.366;10.958;2024-02-21T02:30:12;8.90;99.90
19493;DHT22;9887;54.366;10.958;2024-02-21T02:32:44;8.90;99.90
19493;DHT22;9887;54.366;10.958;2024-02-21T02:35:12;8.90;99.90
19493;DHT22;9887;54.366;10.958;2024-02-21T02:37:47;8.90;99.90
19493;DHT22;9887;54.366;10.958;2024-02-21T02:40:19;8.90;99.90
19493;DHT22;9887;54.366;10.958;2024-02-21T02:42:49;8.90;99.90
19493;DHT22;9887;54.366;10.958;2024-02-21T02:45:18;8.90;99.90
19493;DHT22;9887;54.366;10.958;2024-02-21T02:47:46;8.90;99.90
19493;DHT22;9887;54.366;10.958;2024-02-21T02:50:15;8.90;99.90
19493;DHT22;9887;54.366;10.958;2024-02-21T02:52:43;8.90;99.90
19493;DHT22;9887;54.366;10.958;2024-02-21T02:55:10;8.90;99.90
19493;DHT22;9887;54.366;10.958;2024-02-21T02:57:40;9.00;99.90
19493;DHT22;9887;54.366;10.958;2024-02-21T03:00:09;8.90;99.90
19493;DHT22;9887;54.366;10.958;2024-02-21T03:02:38;9.00;99.90
19493;DHT22;9887;54.366;10.958;2024-02-21T03:05:12;9.00;99.90
19493;DHT22;9887;54.366;10.958;2024-02-21T03:07:41;9.00;99.90
19493;DHT22;9887;54.366;10.958;2024-02-21T03:10:10;9.00;99.90
19493;DHT22;9887;54.366;10.958;2024-02-21T03:12:40;9.00;99.90
19493;DHT22;9887;54.366;10.958;2024-02-21T03:15:09;9.00;99.90
19493;DHT22;9887;54.366;10.958;2024-02-21T03:17:38;9.00;99.90
19493;DHT22;9887;54.366;10.958;2024-02-21T03:20:07;9.00;99.90
19493;DHT22;9887;54.366;10.958;2024-02-21T03:22:38;9.00;99.90
19493;DHT22;9887;54.366;10.958;2024-02-21T03:25:08;9.00;99.90
19493;DHT22;9887;54.366;10.958;2024-02-21T03:27:36;9.00;99.90
19493;DHT22;9887;54.366;10.958;2024-02-21T03:30:07;9.00;99.90
19493;DHT22;9887;54.366;10.958;2024-02-21T03:32:36;9.00;99.90
19493;DHT22;9887;54.366;10.958;2024-02-21T03:35:07;9.10;99.90
19493;DHT22;9887;54.366;10.958;2024-02-21T03:37:36;9.10;99.90
19493;DHT22;9887;54.366;10.958;2024-02-21T03:40:07;9.00;99.90
19493;DHT22;9887;54.366;10.958;2024-02-21T03:42:35;9.10;99.90
19493;DHT22;9887;54.366;10.958;2024-02-21T03:45:06;9.10;99.90
19493;DHT22;9887;54.366;10.958;2024-02-21T03:47:34;9.10;99.90
19493;DHT22;9887;54.366;10.958;2024-02-21T03:50:09;9.10;99.90
19493;DHT22;9887;54.366;10.958;2024-02-21T03:52:37;9.10;99.90
19493;DHT22;9887;54.366;10.958;2024-02-21T03:55:11;9.10;99.90
19493;DHT22;9887;54.366;10.958;2024-02-21T03:57:39;9.10;99.90
19493;DHT22;9887;54.366;10.958;2024-02-21T04:00:11;9.10;99.90
19493;DHT22;9887;54.366;10.958;2024-02-21T04:02:39;9.10;99.90
19493;DHT22;9887;54.366;10.958;2024-02-21T04:05:07;9.20;99.90
19493;DHT22;9887;54.366;10.958;2024-02-21T04:07:38;9.10;99.90
19493;DHT22;9887;54.366;10.958;2024-02-21T04:10:10;9.10;99.90
19493;DHT22;9887;54.366;10.958;2024-02-21T04:12:41;9.10;99.90
19493;DHT22;9887;54.366;10.958;2024-02-21T04:15:13;9.20;99.90
19493;DHT22;9887;54.366;10.958;2024-02-21T04:17:41;9.20;99.90
19493;DHT22;9887;54.366;10.958;2024-02-21T04:20:14;9.20;99.90
19493;DHT22;9887;54.366;10.958;2024-02-21T04:22:43;9.20;99.90
19493;DHT22;9887;54.366;10.958;2024-02-21T04:25:11;9.20;99.90
19493;DHT22;9887;54.366;10.958;2024-02-21T04:27:40;9.20;99.90
19493;DHT22;9887;54.366;10.958;2024-02-21T04:30:10;9.20;99.90
19493;DHT22;9887;54.366;10.958;2024-02-21T04:32:39;9.20;99.90
19493;DHT22;9887;54.366;10.958;2024-02-21T04:35:08;9.20;99.90
19493;DHT22;9887;54.366;10.958;2024-02-21T04:37:36;9.20;99.90
19493;DHT22;9887;54.366;10.958;2024-02-21T04:40:06;9.20;99.90
19493;DHT22;9887;54.366;10.958;2024-02-21T04:42:34;9.20;99.90
19493;DHT22;9887;54.366;10.958;2024-02-21T04:45:06;9.10;99.90
19493;DHT22;9887;54.366;10.958;2024-02-21T04:47:34;9.10;99.90
19493;DHT22;9887;54.366;10.958;2024-02-21T04:50:07;9.10;99.90
19493;DHT22;9887;54.366;10.958;2024-02-21T04:52:35;9.10;99.90
19493;DHT22;9887;54.366;10.958;2024-02-21T04:55:06;9.10;99.90
19493;DHT22;9887;54.366;10.958;2024-02-21T04:57:35;9.10;99.90
19493;DHT22;9887;54.366;10.958;2024-02-21T05:00:03;9.10;99.90
19493;DHT22;9887;54.366;10.958;2024-02-21T05:02:36;9.10;99.90
19493;DHT22;9887;54.366;10.958;2024-02-21T05:05:11;9.10;99.90
19493;DHT22;9887;54.366;10.958;2024-02-21T05:07:40;9.00;99.90
19493;DHT22;9887;54.366;10.958;2024-02-21T05:10:08;9.10;99.90
19493;DHT22;9887;54.366;10.958;2024-02-21T05:12:37;9.10;99.90
19493;DHT22;9887;54.366;10.958;2024-02-21T05:15:06;9.10;99.90
19493;DHT22;9887;54.366;10.958;2024-02-21T05:17:34;9.00;99.90
19493;DHT22;9887;54.366;10.958;2024-02-21T05:20:03;9.00;99.90
19493;DHT22;9887;54.366;10.958;2024-02-21T05:22:34;9.00;99.90
19493;DHT22;9887;54.366;10.958;2024-02-21T05:25:02;9.00;99.90
19493;DHT22;9887;54.366;10.958;2024-02-21T05:27:33;9.00;99.90
19493;DHT22;9887;54.366;10.958;2024-02-21T05:30:03;9.00;99.90
19493;DHT22;9887;54.366;10.958;2024-02-21T05:32:33;9.00;99.90
19493;DHT22;9887;54.366;10.958;2024-02-21T05:35:01;9.00;99.90
19493;DHT22;9887;54.366;10.958;2024-02-21T05:37:30;8.90;99.90
19493;DHT22;9887;54.366;10.958;2024-02-21T05:40:01;8.90;99.90
19493;DHT22;9887;54.366;10.958;2024-02-21T05:42:29;8.90;99.90
19493;DHT22;9887;54.366;10.958;2024-02-21T05:44:57;8.90;99.90
19493;DHT22;9887;54.366;10.958;2024-02-21T05:47:28;8.90;99.90
19493;DHT22;9887;54.366;10.958;2024-02-21T05:49:56;8.90;99.90
19493;DHT22;9887;54.366;10.958;2024-02-21T05:52:24;8.90;99.90
19493;DHT22;9887;54.366;10.958;2024-02-21T05:54:52;8.90;99.90
19493;DHT22;9887;54.366;10.958;2024-02-21T05:57:23;8.80;99.90
19493;DHT22;9887;54.366;10.958;2024-02-21T05:59:53;8.80;99.90
19493;DHT22;9887;54.366;10.958;2024-02-21T06:02:21;8.80;99.90
19493;DHT22;9887;54.366;10.958;2024-02-21T06:04:49;8.80;99.90
19493;DHT22;9887;54.366;10.958;2024-02-21T06:07:17;8.80;99.90
19493;DHT22;9887;54.366;10.958;2024-02-21T06:09:45;8.80;99.90
19493;DHT22;9887;54.366;10.958;2024-02-21T06:12:13;8.80;99.90
19493;DHT22;9887;54.366;10.958;2024-02-21T06:14:42;8.80;99.90
19493;DHT22;9887;54.366;10.958;2024-02-21T06:17:10;8.80;99.90
19493;DHT22;9887;54.366;10.958;2024-02-21T06:19:40;8.70;99.90
19493;DHT22;9887;54.366;10.958;2024-02-21T06:22:08;8.70;99.90
19493;DHT22;9887;54.366;10.958;2024-02-21T06:24:36;8.70;99.90
19493;DHT22;9887;54.366;10.958;2024-02-21T06:27:04;8.70;99.90
19493;DHT22;9887;54.366;10.958;2024-02-21T06:29:36;8.70;99.90
19493;DHT22;9887;54.366;10.958;2024-02-21T06:32:06;8.70;99.90
19493;DHT22;9887;54.366;10.958;2024-02-21T06:34:34;8.70;99.90
19493;DHT22;9887;54.366;10.958;2024-02-21T06:37:03;8.70;99.90
19493;DHT22;9887;54.366;10.958;2024-02-21T06:39:31;8.70;99.90
19493;DHT22;9887;54.366;10.958;2024-02-21T06:41:58;8.70;99.90
19493;DHT22;9887;54.366;10.958;2024-02-21T06:44:29;8.70;99.90
19493;DHT22;9887;54.366;10.958;2024-02-21T06:46:58;8.70;99.90
19493;DHT22;9887;54.366;10.958;2024-02-21T06:49:28;8.60;99.90
19493;DHT22;9887;54.366;10.958;2024-02-21T06:51:56;8.60;99.90
19493;DHT22;9887;54.366;10.958;2024-02-21T06:54:24;8.60;99.90
19493;DHT22;9887;54.366;10.958;2024-02-21T06:56:52;8.60;99.90
19493;DHT22;9887;54.366;10.958;2024-02-21T06:59:20;8.60;99.90
19493;DHT22;9887;54.366;10.958;2024-02-21T07:01:49;8.60;99.90
19493;DHT22;9887;54.366;10.958;2024-02-21T07:04:17;8.60;99.90
19493;DHT22;9887;54.366;10.958;2024-02-21T07:06:46;8.60;99.90
19493;DHT22;9887;54.366;10.958;2024-02-21T07:09:15;8.60;99.90
19493;DHT22;9887;54.366;10.958;2024-02-21T07:11:45;8.60;99.90
19493;DHT22;9887;54.366;10.958;2024-02-21T07:14:14;8.60;99.90
19493;DHT22;9887;54.366;10.958;2024-02-21T07:16:42;8.60;99.90
19493;DHT22;9887;54.366;10.958;2024-02-21T07:19:10;8.60;99.90
19493;DHT22;9887;54.366;10.958;2024-02-21T07:21:38;8.60;99.90
19493;DHT22;9887;54.366;10.958;2024-02-21T07:24:09;8.60;99.90
19493;DHT22;9887;54.366;10.958;2024-02-21T07:26:37;8.60;99.90
19493;DHT22;9887;54.366;10.958;2024-02-21T07:29:05;8.60;99.90
19493;DHT22;9887;54.366;10.958;2024-02-21T07:31:39;8.60;99.90
19493;DHT22;9887;54.366;10.958;2024-02-21T07:34:08;8.60;99.90
19493;DHT22;9887;54.366;10.958;2024-02-21T07:36:36;8.60;99.90
19493;DHT22;9887;54.366;10.958;2024-02-21T07:39:05;8.60;99.90
19493;DHT22;9887;54.366;10.958;2024-02-21T07:41:35;8.60;99.90
19493;DHT22;9887;54.366;10.958;2024-02-21T07:44:03;8.60;99.90
19493;DHT22;9887;54.366;10.958;2024-02-21T07:46:31;8.60;99.90
19493;DHT22;9887;54.366;10.958;2024-02-21T07:49:00;8.60;99.90
19493;DHT22;9887;54.366;10.958;2024-02-21T07:51:29;8.60;99.90
19493;DHT22;9887;54.366;10.958;2024-02-21T07:53:57;8.60;99.90
19493;DHT22;9887;54.366;10.958;2024-02-21T07:56:27;8.60;99.90
19493;DHT22;9887;54.366;10.958;2024-02-21T07:58:57;8.60;99.90
19493;DHT22;9887;54.366;10.958;2024-02-21T08:01:25;8.60;99.90
19493;DHT22;9887;54.366;10.958;2024-02-21T08:03:53;8.60;99.90
19493;DHT22;9887;54.366;10.958;2024-02-21T08:06:21;8.60;99.90
19493;DHT22;9887;54.366;10.958;2024-02-21T08:08:48;8.60;99.90
19493;DHT22;9887;54.366;10.958;2024-02-21T08:11:16;8.60;99.90
19493;DHT22;9887;54.366;10.958;2024-02-21T08:13:44;8.50;99.90
19493;DHT22;9887;54.366;10.958;2024-02-21T08:16:14;8.50;99.90
19493;DHT22;9887;54.366;10.958;2024-02-21T08:18:43;8.50;99.90
19493;DHT22;9887;54.366;10.958;2024-02-21T08:21:12;8.50;99.90
19493;DHT22;9887;54.366;10.958;2024-02-21T08:23:39;8.50;99.90
19493;DHT22;9887;54.366;10.958;2024-02-21T08:26:07;8.50;99.90
19493;DHT22;9887;54.366;10.958;2024-02-21T08:28:35;8.50;99.90
19493;DHT22;9887;54.366;10.958;2024-02-21T08:31:03;8.50;99.90
19493;DHT22;9887;54.366;10.958;2024-02-21T08:33:36;8.50;99.90
19493;DHT22;9887;54.366;10.958;2024-02-21T08:36:05;8.50;99.90
19493;DHT22;9887;54.366;10.958;2024-02-21T08:38:33;8.50;99.90
19493;DHT22;9887;54.366;10.958;2024-02-21T08:41:01;8.50;99.90
19493;DHT22;9887;54.366;10.958;2024-02-21T08:43:30;8.50;99.90
19493;DHT22;9887;54.366;10.958;2024-02-21T08:45:59;8.40;99.90
19493;DHT22;9887;54.366;10.958;2024-02-21T08:48:27;8.40;99.90
19493;DHT22;9887;54.366;10.958;2024-02-21T08:50:57;8.40;99.90
19493;DHT22;9887;54.366;10.958;2024-02-21T08:53:25;8.40;99.90
19493;DHT22;9887;54.366;10.958;2024-02-21T08:55:53;8.40;99.90
19493;DHT22;9887;54.366;10.958;2024-02-21T08:58:23;8.40;99.90
19493;DHT22;9887;54.366;10.958;2024-02-21T09:00:53;8.40;99.90
19493;DHT22;9887;54.366;10.958;2024-02-21T09:03:21;8.40;99.90
19493;DHT22;9887;54.366;10.958;2024-02-21T09:05:49;8.40;99.90
19493;DHT22;9887;54.366;10.958;2024-02-21T09:08:18;8.40;99.90
19493;DHT22;9887;54.366;10.958;2024-02-21T09:10:46;8.40;99.90
19493;DHT22;9887;54.366;10.958;2024-02-21T09:13:17;8.40;99.90
19493;DHT22;9887;54.366;10.958;2024-02-21T09:15:45;8.40;99.90
19493;DHT22;9887;54.366;10.958;2024-02-21T09:18:13;8.40;99.90
19493;DHT22;9887;54.366;10.958;2024-02-21T09:20:40;8.50;99.90
19493;DHT22;9887;54.366;10.958;2024-02-21T09:23:08;8.50;99.90
19493;DHT22;9887;54.366;10.958;2024-02-21T09:25:38;8.50;99.90
19493;DHT22;9887;54.366;10.958;2024-02-21T09:28:06;8.50;99.90
19493;DHT22;9887;54.366;10.958;2024-02-21T09:30:34;8.50;99.90
19493;DHT22;9887;54.366;10.958;2024-02-21T09:33:03;8.50;99.90
19493;DHT22;9887;54.366;10.958;2024-02-21T09:35:31;8.50;99.90
19493;DHT22;9887;54.366;10.958;2024-02-21T09:38:00;8.50;99.90
19493;DHT22;9887;54.366;10.958;2024-02-21T09:40:30;8.50;99.90
19493;DHT22;9887;54.366;10.958;2024-02-21T09:43:04;8.50;99.90
19493;DHT22;9887;54.366;10.958;2024-02-21T09:45:33;8.50;99.90
19493;DHT22;9887;54.366;10.958;2024-02-21T09:51:02;8.60;99.90
19493;DHT22;9887;54.366;10.958;2024-02-21T09:53:32;8.60;99.90
19493;DHT22;9887;54.366;10.958;2024-02-21T09:56:02;8.60;99.90
19493;DHT22;9887;54.366;10.958;2024-02-21T09:58:31;8.60;99.90
19493;DHT22;9887;54.366;10.958;2024-02-21T10:01:02;8.70;99.90
19493;DHT22;9887;54.366;10.958;2024-02-21T10:03:47;8.70;99.90
19493;DHT22;9887;54.366;10.958;2024-02-21T10:06:14;8.70;99.90
19493;DHT22;9887;54.366;10.958;2024-02-21T10:08:42;8.70;99.90
19493;DHT22;9887;54.366;10.958;2024-02-21T10:11:22;8.70;99.90
19493;DHT22;9887;54.366;10.958;2024-02-21T10:13:51;8.80;99.90
19493;DHT22;9887;54.366;10.958;2024-02-21T10:16:30;8.70;99.90
19493;DHT22;9887;54.366;10.958;2024-02-21T10:18:59;8.80;99.90
19493;DHT22;9887;54.366;10.958;2024-02-21T10:21:26;8.80;99.90
19493;DHT22;9887;54.366;10.958;2024-02-21T10:23:54;8.80;99.90
19493;DHT22;9887;54.366;10.958;2024-02-21T10:26:23;8.90;99.90
19493;DHT22;9887;54.366;10.958;2024-02-21T10:28:52;8.90;99.90
19493;DHT22;9887;54.366;10.958;2024-02-21T10:31:22;8.90;99.90
19493;DHT22;9887;54.366;10.958;2024-02-21T10:33:54;9.00;99.90
19493;DHT22;9887;54.366;10.958;2024-02-21T10:36:24;9.00;99.90
19493;DHT22;9887;54.366;10.958;2024-02-21T10:38:53;9.00;99.90
19493;DHT22;9887;54.366;10.958;2024-02-21T10:41:22;9.00;99.90
19493;DHT22;9887;54.366;10.958;2024-02-21T10:43:52;9.10;99.90
19493;DHT22;9887;54.366;10.958;2024-02-21T10:46:23;9.10;99.90
19493;DHT22;9887;54.366;10.958;2024-02-21T10:49:01;9.10;99.90
19493;DHT22;9887;54.366;10.958;2024-02-21T10:51:33;9.20;99.90
19493;DHT22;9887;54.366;10.958;2024-02-21T10:54:13;9.20;99.90
19493;DHT22;9887;54.366;10.958;2024-02-21T10:56:45;9.30;99.90
19493;DHT22;9887;54.366;10.958;2024-02-21T10:59:15;9.30;99.90
19493;DHT22;9887;54.366;10.958;2024-02-21T11:01:44;9.30;99.90
19493;DHT22;9887;54.366;10.958;2024-02-21T11:04:12;9.40;99.90
19493;DHT22;9887;54.366;10.958;2024-02-21T11:06:41;9.40;99.90
19493;DHT22;9887;54.366;10.958;2024-02-21T11:09:10;9.40;99.90
19493;DHT22;9887;54.366;10.958;2024-02-21T11:11:39;9.50;99.90
19493;DHT22;9887;54.366;10.958;2024-02-21T11:14:10;9.50;99.90
19493;DHT22;9887;54.366;10.958;2024-02-21T11:16:40;9.60;99.90
19493;DHT22;9887;54.366;10.958;2024-02-21T11:19:10;9.60;99.90
19493;DHT22;9887;54.366;10.958;2024-02-21T11:21:50;9.60;99.90
19493;DHT22;9887;54.366;10.958;2024-02-21T11:24:26;9.70;99.90
19493;DHT22;9887;54.366;10.958;2024-02-21T11:26:55;9.70;99.90
19493;DHT22;9887;54.366;10.958;2024-02-21T11:29:24;9.80;99.90
19493;DHT22;9887;54.366;10.958;2024-02-21T11:31:53;9.80;99.90
19493;DHT22;9887;54.366;10.958;2024-02-21T11:34:21;9.90;99.90
19493;DHT22;9887;54.366;10.958;2024-02-21T11:36:50;9.90;99.90
19493;DHT22;9887;54.366;10.958;2024-02-21T11:39:20;9.90;99.90
19493;DHT22;9887;54.366;10.958;2024-02-21T11:42:01;10.00;99.90
19493;DHT22;9887;54.366;10.958;2024-02-21T11:44:29;10.00;99.90
19493;DHT22;9887;54.366;10.958;2024-02-21T11:46:58;10.10;99.90
19493;DHT22;9887;54.366;10.958;2024-02-21T11:49:28;10.10;99.90
19493;DHT22;9887;54.366;10.958;2024-02-21T11:52:00;10.20;99.90
19493;DHT22;9887;54.366;10.958;2024-02-21T11:54:30;10.20;99.90
19493;DHT22;9887;54.366;10.958;2024-02-21T11:56:58;10.30;99.90
19493;DHT22;9887;54.366;10.958;2024-02-21T11:59:26;10.30;99.90
19493;DHT22;9887;54.366;10.958;2024-02-21T12:01:54;10.40;99.90
19493;DHT22;9887;54.366;10.958;2024-02-21T12:04:24;10.40;99.90
19493;DHT22;9887;54.366;10.958;2024-02-21T12:06:53;10.40;99.90
19493;DHT22;9887;54.366;10.958;2024-02-21T12:09:22;10.50;99.90
19493;DHT22;9887;54.366;10.958;2024-02-21T12:11:57;10.50;99.90
19493;DHT22;9887;54.366;10.958;2024-02-21T12:14:25;10.60;99.90
19493;DHT22;9887;54.366;10.958;2024-02-21T12:16:54;10.60;99.90
19493;DHT22;9887;54.366;10.958;2024-02-21T12:19:24;10.60;99.90
19493;DHT22;9887;54.366;10.958;2024-02-21T12:21:52;10.70;99.90
19493;DHT22;9887;54.366;10.958;2024-02-21T12:24:22;10.70;99.90
19493;DHT22;9887;54.366;10.958;2024-02-21T12:26:51;10.70;99.90
19493;DHT22;9887;54.366;10.958;2024-02-21T12:29:19;10.70;99.90
19493;DHT22;9887;54.366;10.958;2024-02-21T12:31:47;10.80;99.90
19493;DHT22;9887;54.366;10.958;2024-02-21T12:34:16;10.80;99.90
19493;DHT22;9887;54.366;10.958;2024-02-21T12:37:01;10.80;99.90
19493;DHT22;9887;54.366;10.958;2024-02-21T12:39:30;10.80;99.90
19493;DHT22;9887;54.366;10.958;2024-02-21T12:41:59;10.90;99.90
19493;DHT22;9887;54.366;10.958;2024-02-21T12:44:27;10.90;99.90
19493;DHT22;9887;54.366;10.958;2024-02-21T12:46:55;10.90;99.90
19493;DHT22;9887;54.366;10.958;2024-02-21T12:49:23;10.90;99.90
19493;DHT22;9887;54.366;10.958;2024-02-21T12:51:51;11.00;99.90
19493;DHT22;9887;54.366;10.958;2024-02-21T12:54:20;11.00;99.90
19493;DHT22;9887;54.366;10.958;2024-02-21T12:56:48;11.00;99.90
19493;DHT22;9887;54.366;10.958;2024-02-21T12:59:16;11.00;99.90
19493;DHT22;9887;54.366;10.958;2024-02-21T13:01:44;11.00;99.90
19493;DHT22;9887;54.366;10.958;2024-02-21T13:04:12;11.10;99.90
19493;DHT22;9887;54.366;10.958;2024-02-21T13:06:40;11.10;99.90
19493;DHT22;9887;54.366;10.958;2024-02-21T13:09:08;11.10;99.90
19493;DHT22;9887;54.366;10.958;2024-02-21T13:11:39;11.10;99.90
19493;DHT22;9887;54.366;10.958;2024-02-21T13:14:08;11.10;99.90
19493;DHT22;9887;54.366;10.958;2024-02-21T13:16:35;11.10;99.90
19493;DHT22;9887;54.366;10.958;2024-02-21T13:19:06;11.10;99.90
19493;DHT22;9887;54.366;10.958;2024-02-21T13:21:35;11.10;99.90
19493;DHT22;9887;54.366;10.958;2024-02-21T13:24:04;11.20;99.90
19493;DHT22;9887;54.366;10.958;2024-02-21T13:26:32;11.20;99.90
19493;DHT22;9887;54.366;10.958;2024-02-21T13:29:01;11.20;99.90
19493;DHT22;9887;54.366;10.958;2024-02-21T13:31:30;11.20;99.90
19493;DHT22;9887;54.366;10.958;2024-02-21T13:33:58;11.20;99.90
19493;DHT22;9887;54.366;10.958;2024-02-21T13:36:26;11.20;99.90
19493;DHT22;9887;54.366;10.958;2024-02-21T13:38:54;11.20;99.90
19493;DHT22;9887;54.366;10.958;2024-02-21T13:41:22;11.20;99.90
19493;DHT22;9887;54.366;10.958;2024-02-21T13:43:50;11.30;99.90
19493;DHT22;9887;54.366;10.958;2024-02-21T13:46:19;11.30;99.90
19493;DHT22;9887;54.366;10.958;2024-02-21T13:48:49;11.30;99.90
19493;DHT22;9887;54.366;10.958;2024-02-21T13:51:17;11.30;99.90
19493;DHT22;9887;54.366;10.958;2024-02-21T13:53:46;11.30;99.90
19493;DHT22;9887;54.366;10.958;2024-02-21T13:56:14;11.30;99.90
19493;DHT22;9887;54.366;10.958;2024-02-21T13:58:42;11.30;99.90
19493;DHT22;9887;54.366;10.958;2024-02-21T14:01:10;11.30;99.90
19493;DHT22;9887;54.366;10.958;2024-02-21T14:03:39;11.40;99.90
19493;DHT22;9887;54.366;10.958;2024-02-21T14:06:07;11.30;99.90
19493;DHT22;9887;54.366;10.958;2024-02-21T14:08:35;11.40;99.90
19493;DHT22;9887;54.366;10.958;2024-02-21T14:11:06;11.40;99.90
19493;DHT22;9887;54.366;10.958;2024-02-21T14:13:34;11.40;99.90
19493;DHT22;9887;54.366;10.958;2024-02-21T14:16:09;11.40;99.90
19493;DHT22;9887;54.366;10.958;2024-02-21T14:18:39;11.30;99.90
19493;DHT22;9887;54.366;10.958;2024-02-21T14:21:09;11.40;99.90
19493;DHT22;9887;54.366;10.958;2024-02-21T14:23:38;11.40;99.90
19493;DHT22;9887;54.366;10.958;2024-02-21T14:26:06;11.30;99.90
19493;DHT22;9887;54.366;10.958;2024-02-21T14:28:34;11.40;99.90
19493;DHT22;9887;54.366;10.958;2024-02-21T14:31:03;11.30;99.90
19493;DHT22;9887;54.366;10.958;2024-02-21T14:33:32;11.30;99.90
19493;DHT22;9887;54.366;10.958;2024-02-21T14:36:02;11.30;99.90
19493;DHT22;9887;54.366;10.958;2024-02-21T14:38:30;11.30;99.90
19493;DHT22;9887;54.366;10.958;2024-02-21T14:40:58;11.30;99.90
19493;DHT22;9887;54.366;10.958;2024-02-21T14:43:26;11.30;99.90
19493;DHT22;9887;54.366;10.958;2024-02-21T14:45:55;11.30;99.90
19493;DHT22;9887;54.366;10.958;2024-02-21T14:48:23;11.30;99.90
19493;DHT22;9887;54.366;10.958;2024-02-21T14:50:53;11.20;99.90
19493;DHT22;9887;54.366;10.958;2024-02-21T14:53:22;11.20;99.90
19493;DHT22;9887;54.366;10.958;2024-02-21T14:55:50;11.20;99.90
19493;DHT22;9887;54.366;10.958;2024-02-21T14:58:18;11.20;99.90
19493;DHT22;9887;54.366;10.958;2024-02-21T15:00:46;11.20;99.90
19493;DHT22;9887;54.366;10.958;2024-02-21T15:03:16;11.20;99.90
19493;DHT22;9887;54.366;10.958;2024-02-21T15:05:46;11.20;99.90
19493;DHT22;9887;54.366;10.958;2024-02-21T15:08:14;11.20;99.90
19493;DHT22;9887;54.366;10.958;2024-02-21T15:10:45;11.10;99.90
19493;DHT22;9887;54.366;10.958;2024-02-21T15:13:13;11.10;99.90
19493;DHT22;9887;54.366;10.958;2024-02-21T15:15:41;11.10;99.90
19493;DHT22;9887;54.366;10.958;2024-02-21T15:18:09;11.10;99.90
19493;DHT22;9887;54.366;10.958;2024-02-21T15:20:37;11.10;99.90
19493;DHT22;9887;54.366;10.958;2024-02-21T15:23:05;11.10;99.90
19493;DHT22;9887;54.366;10.958;2024-02-21T15:25:33;11.00;99.90
19493;DHT22;9887;54.366;10.958;2024-02-21T15:28:03;11.00;99.90
19493;DHT22;9887;54.366;10.958;2024-02-21T15:30:32;11.00;99.90
19493;DHT22;9887;54.366;10.958;2024-02-21T15:33:00;11.00;99.90
19493;DHT22;9887;54.366;10.958;2024-02-21T15:35:29;11.00;99.90
19493;DHT22;9887;54.366;10.958;2024-02-21T15:37:58;11.00;99.90
19493;DHT22;9887;54.366;10.958;2024-02-21T15:40:26;11.00;99.90
19493;DHT22;9887;54.366;10.958;2024-02-21T15:42:54;10.90;99.90
19493;DHT22;9887;54.366;10.958;2024-02-21T15:45:23;10.90;99.90
19493;DHT22;9887;54.366;10.958;2024-02-21T15:47:51;10.90;99.90
19493;DHT22;9887;54.366;10.958;2024-02-21T15:50:21;10.90;99.90
19493;DHT22;9887;54.366;10.958;2024-02-21T15:52:49;10.90;99.90
19493;DHT22;9887;54.366;10.958;2024-02-21T15:55:17;10.90;99.90
19493;DHT22;9887;54.366;10.958;2024-02-21T15:57:46;10.80;99.90